Time;durP1;ratioP1;P1;durP2;ratioP2;P2;SDS_P1;SDS_P2;PMS_P1;PMS_P2;Temp;Humidity;BMP_temperature;BMP_pressure;BME280_temperature;BME280_humidity;BME280_pressure;Samples;Min_cycle;Max_cycle;Signal;HPM_P1;HPM_P2
2022/09/06 00:00:15;;;;;;;6.30;5.55;;;;;;;12.82;82.40;97190.29;1700328;83;20909;-87
2022/09/06 00:02:43;;;;;;;7.05;5.85;;;;;;;12.80;82.48;97194.88;1704267;84;20965;-87
2022/09/06 00:05:10;;;;;;;8.08;5.70;;;;;;;12.79;82.54;97194.55;1694078;84;20961;-87
2022/09/06 00:07:36;;;;;;;7.20;5.50;;;;;;;12.78;82.67;97194.24;1695421;83;20972;-86
2022/09/06 00:10:02;;;;;;;8.98;5.92;;;;;;;12.77;82.78;97186.10;1702849;84;20975;-86
2022/09/06 00:12:29;;;;;;;8.15;5.85;;;;;;;12.76;83.05;97183.67;1688534;84;20985;-86
2022/09/06 00:14:55;;;;;;;6.85;5.08;;;;;;;12.75;83.09;97182.86;1706508;83;21082;-87
2022/09/06 00:17:20;;;;;;;7.45;5.58;;;;;;;12.74;83.19;97176.03;1695416;83;20968;-86
2022/09/06 00:19:46;;;;;;;6.95;6.12;;;;;;;12.71;83.37;97178.19;1700240;83;21002;-86
2022/09/06 00:22:12;;;;;;;6.90;4.90;;;;;;;12.71;83.57;97180.30;1730307;83;21308;-86
2022/09/06 00:24:39;;;;;;;6.37;5.35;;;;;;;12.71;83.77;97177.69;1747197;82;21096;-87
2022/09/06 00:27:06;;;;;;;7.78;6.22;;;;;;;12.71;83.59;97175.58;1700342;84;21464;-86
2022/09/06 00:29:32;;;;;;;6.33;5.42;;;;;;;12.68;83.59;97170.19;1722905;83;20964;-86
2022/09/06 00:31:58;;;;;;;6.97;5.22;;;;;;;12.68;83.55;97168.89;1719554;83;21299;-86
2022/09/06 00:34:25;;;;;;;7.00;5.08;;;;;;;12.65;83.51;97160.61;1729612;83;21375;-87
2022/09/06 00:36:50;;;;;;;7.20;5.50;;;;;;;12.61;83.73;97164.88;1682222;84;20969;-87
2022/09/06 00:39:16;;;;;;;7.33;5.47;;;;;;;12.59;83.95;97166.86;1699880;83;21003;-85
2022/09/06 00:41:42;;;;;;;6.17;4.72;;;;;;;12.59;84.11;97162.13;1752464;81;20963;-87
2022/09/06 00:44:08;;;;;;;5.87;4.85;;;;;;;12.57;83.95;97170.13;1749482;81;21037;-86
2022/09/06 00:46:33;;;;;;;6.37;5.15;;;;;;;12.56;83.94;97163.80;1700316;84;20966;-87
2022/09/06 00:49:08;;;;;;;7.00;5.25;;;;;;;12.55;83.93;97170.00;1749189;81;20975;-87
2022/09/06 00:51:36;;;;;;;5.22;4.72;;;;;;;12.52;83.55;97171.13;1739187;81;20979;-86
2022/09/06 00:54:06;;;;;;;6.87;4.78;;;;;;;12.48;83.63;97176.38;1766048;81;21026;-87
2022/09/06 00:56:34;;;;;;;7.42;4.45;;;;;;;12.46;83.62;97175.74;1744662;81;20949;-87
2022/09/06 00:59:00;;;;;;;6.50;4.70;;;;;;;12.43;83.91;97181.31;1751756;81;21382;-86
2022/09/06 01:01:26;;;;;;;5.85;4.97;;;;;;;12.42;84.01;97176.27;1740481;82;20972;-86
2022/09/06 01:03:52;;;;;;;5.80;5.28;;;;;;;12.41;83.93;97183.77;1702300;84;20983;-87
2022/09/06 01:06:55;;;;;;;6.17;5.20;;;;;;;12.40;84.04;97179.55;1732801;81;21016;-87
2022/09/06 01:09:39;;;;;;;5.25;4.75;;;;;;;12.38;84.28;97174.52;1679187;84;21004;-86
2022/09/06 01:12:16;;;;;;;5.92;4.97;;;;;;;12.37;84.07;97175.50;1720591;82;21047;-86
2022/09/06 01:15:17;;;;;;;7.72;5.85;;;;;;;12.35;84.00;97170.12;1685789;84;21047;-87
2022/09/06 01:18:09;;;;;;;6.42;5.00;;;;;;;12.32;83.89;97177.80;1704940;83;21515;-87
2022/09/06 01:21:09;;;;;;;6.70;5.30;;;;;;;12.28;84.11;97170.81;1679395;83;21336;-87
2022/09/06 01:24:17;;;;;;;7.08;4.40;;;;;;;12.28;84.38;97173.92;1672932;85;21011;-87
2022/09/06 01:27:26;;;;;;;6.33;4.83;;;;;;;12.25;84.32;97170.36;1712722;82;20970;-86
2022/09/06 01:30:08;;;;;;;5.47;4.60;;;;;;;12.23;84.27;97174.94;1714543;82;21016;-87
2022/09/06 01:33:08;;;;;;;5.55;4.92;;;;;;;12.21;84.43;97175.11;1722095;82;21033;-86
2022/09/06 01:35:56;;;;;;;5.95;5.12;;;;;;;12.18;84.33;97165.01;1722081;81;21335;-87
2022/09/06 01:38:22;;;;;;;5.20;4.70;;;;;;;12.17;84.50;97169.09;1725181;81;20976;-86
2022/09/06 01:40:48;;;;;;;5.70;4.90;;;;;;;12.16;84.72;97164.38;1736237;82;21008;-86
2022/09/06 01:43:19;;;;;;;6.50;5.15;;;;;;;12.16;84.85;97162.27;1734456;82;21367;-86
2022/09/06 01:46:34;;;;;;;7.67;5.45;;;;;;;12.17;85.14;97169.09;1690941;85;21414;-86
2022/09/06 01:49:41;;;;;;;5.47;4.80;;;;;;;12.17;85.26;97159.97;1685726;85;21399;-87
2022/09/06 01:52:21;;;;;;;5.83;4.62;;;;;;;12.17;85.20;97170.39;1731240;82;21103;-86
2022/09/06 01:55:22;;;;;;;5.80;4.85;;;;;;;12.16;85.65;97175.29;1727539;82;21012;-87
2022/09/06 01:58:02;;;;;;;5.58;4.80;;;;;;;12.15;85.81;97168.45;1689770;85;21086;-86
2022/09/06 02:00:28;;;;;;;6.60;5.15;;;;;;;12.16;85.97;97162.27;1690944;84;21327;-87
2022/09/06 02:03:20;;;;;;;7.30;5.42;;;;;;;12.15;86.30;97159.34;1729044;82;20947;-88
2022/09/06 02:05:54;;;;;;;6.25;5.40;;;;;;;12.16;86.18;97163.07;1689358;84;21016;-87
2022/09/06 02:08:43;;;;;;;6.20;4.67;;;;;;;12.16;86.03;97162.27;1747114;82;21103;-88
2022/09/06 02:11:09;;;;;;;5.85;5.10;;;;;;;12.15;85.87;97150.22;1755549;82;20936;-87
2022/09/06 02:13:54;;;;;;;5.08;4.58;;;;;;;12.13;85.87;97149.59;1752574;81;21098;-87
2022/09/06 02:16:24;;;;;;;7.58;5.20;;;;;;;12.12;85.87;97149.27;1721381;82;21353;-87
2022/09/06 02:19:21;;;;;;;6.30;4.53;;;;;;;12.10;85.55;97158.56;1741153;82;21007;-86
2022/09/06 02:21:47;;;;;;;6.55;4.92;;;;;;;12.07;85.60;97149.80;1739719;82;21016;-87
2022/09/06 02:24:21;;;;;;;5.45;4.85;;;;;;;12.05;85.50;97145.25;1721507;82;20929;-87
2022/09/06 02:26:47;;;;;;;6.47;4.60;;;;;;;12.03;85.52;97137.58;1731121;82;21023;-88
2022/09/06 02:29:14;;;;;;;7.37;4.90;;;;;;;12.01;85.62;97143.45;1729067;82;21375;-89
2022/09/06 02:32:02;;;;;;;6.00;5.17;;;;;;;11.98;85.66;97141.20;1740538;81;20929;-86
2022/09/06 02:34:28;;;;;;;6.80;4.80;;;;;;;11.97;85.81;97141.38;1743222;82;21055;-86
2022/09/06 02:36:54;;;;;;;5.45;4.80;;;;;;;11.96;85.69;97137.16;1718898;82;21058;-85
2022/09/06 02:39:20;;;;;;;5.95;4.67;;;;;;;11.93;85.75;97141.41;1740319;82;21068;-86
2022/09/06 02:41:47;;;;;;;6.47;5.10;;;;;;;11.92;85.78;97143.69;1748147;82;21016;-86
2022/09/06 02:44:13;;;;;;;6.35;5.15;;;;;;;11.90;85.77;97135.25;1746943;82;21007;-85
2022/09/06 02:46:39;;;;;;;5.30;4.33;;;;;;;11.89;85.93;97138.83;1728905;82;20955;-86
2022/09/06 02:49:05;;;;;;;6.72;4.80;;;;;;;11.88;85.80;97136.72;1731805;81;20941;-86
2022/09/06 02:51:39;;;;;;;6.08;5.40;;;;;;;11.86;85.81;97147.77;1720195;82;20944;-86
2022/09/06 02:54:05;;;;;;;5.55;4.75;;;;;;;11.86;85.96;97144.36;1735731;82;21061;-85
2022/09/06 02:56:32;;;;;;;5.90;5.30;;;;;;;11.85;86.28;97144.84;1741199;82;20924;-86
2022/09/06 02:58:59;;;;;;;6.25;5.60;;;;;;;11.82;86.19;97143.89;1730585;82;20971;-86
2022/09/06 03:01:25;;;;;;;6.05;5.22;;;;;;;11.81;86.29;97140.16;1749900;82;21386;-86
2022/09/06 03:03:51;;;;;;;6.53;5.05;;;;;;;11.79;86.46;97136.92;1720938;81;21323;-86
2022/09/06 03:06:17;;;;;;;7.08;5.10;;;;;;;11.78;86.66;97139.98;1737223;82;20917;-86
2022/09/06 03:08:42;;;;;;;6.90;5.30;;;;;;;11.77;86.64;97136.25;1748335;82;20955;-85
2022/09/06 03:11:08;;;;;;;6.50;5.33;;;;;;;11.75;86.75;97139.03;1720195;82;21012;-86
2022/09/06 03:13:34;;;;;;;7.15;5.53;;;;;;;11.75;86.87;97129.11;1735368;81;20901;-86
2022/09/06 03:16:00;;;;;;;6.42;5.80;;;;;;;11.73;87.05;97132.70;1749783;82;21063;-86
2022/09/06 03:18:28;;;;;;;8.15;5.78;;;;;;;11.75;87.20;97133.83;1714019;84;21039;-86
2022/09/06 03:20:54;;;;;;;6.78;5.33;;;;;;;11.77;87.56;97134.46;1667854;85;21044;-86
2022/09/06 03:23:22;;;;;;;7.25;5.67;;;;;;;11.80;87.67;97136.75;1667815;85;22062;-86
2022/09/06 03:25:49;;;;;;;6.47;5.47;;;;;;;11.82;87.82;97136.58;1667632;85;21060;-85
2022/09/06 03:28:16;;;;;;;7.22;5.65;;;;;;;11.83;87.87;97141.61;1667953;85;21391;-86
2022/09/06 03:30:46;;;;;;;7.67;5.55;;;;;;;11.84;87.77;97142.42;1670194;85;21032;-85
2022/09/06 03:33:12;;;;;;;6.87;4.72;;;;;;;11.82;87.66;97136.58;1684093;83;21053;-85
2022/09/06 03:35:38;;;;;;;6.03;5.42;;;;;;;11.81;87.73;97137.56;1695669;83;21034;-85
2022/09/06 03:38:04;;;;;;;6.15;5.47;;;;;;;11.81;88.05;97134.95;1682168;85;20998;-89
2022/09/06 03:40:29;;;;;;;5.97;5.15;;;;;;;11.81;88.13;97133.16;1679502;85;20964;-88
2022/09/06 03:42:55;;;;;;;6.92;5.17;;;;;;;11.81;88.08;97125.84;1674692;85;20941;-88
2022/09/06 03:45:21;;;;;;;7.20;5.65;;;;;;;11.81;88.20;97127.14;1702674;84;21049;-88
2022/09/06 03:47:47;;;;;;;5.55;4.87;;;;;;;11.81;88.35;97124.05;1686593;84;20948;-88
2022/09/06 03:50:12;;;;;;;7.37;5.70;;;;;;;11.83;88.37;97119.97;1688737;85;20945;-88
2022/09/06 03:52:39;;;;;;;6.15;5.25;;;;;;;11.84;88.47;97122.89;1677031;85;21027;-87
2022/09/06 03:55:06;;;;;;;8.48;5.10;;;;;;;11.81;88.67;97104.52;1706718;84;21028;-86
2022/09/06 03:57:31;;;;;;;6.20;5.40;;;;;;;11.91;88.76;97114.73;1686658;84;20984;-87
2022/09/06 03:59:57;;;;;;;5.90;5.30;;;;;;;11.92;88.76;97117.16;1670992;85;20992;-88
2022/09/06 04:02:23;;;;;;;7.17;5.30;;;;;;;11.94;88.90;97117.80;1696893;85;20992;-88
2022/09/06 04:04:49;;;;;;;5.55;4.92;;;;;;;11.95;88.68;97118.60;1671403;85;21067;-87
2022/09/06 04:07:15;;;;;;;5.58;4.97;;;;;;;11.94;88.74;97114.38;1691330;83;20959;-87
2022/09/06 04:09:40;;;;;;;10.13;5.50;;;;;;;11.93;88.60;97115.37;1736278;82;21000;-88
2022/09/06 04:12:06;;;;;;;6.90;5.62;;;;;;;11.92;88.69;97109.34;1747117;82;20991;-87
2022/09/06 04:14:32;;;;;;;6.15;5.55;;;;;;;11.93;88.69;97112.27;1740975;81;21070;-88
2022/09/06 04:16:58;;;;;;;6.28;5.37;;;;;;;11.94;88.68;97114.38;1750128;81;20944;-87
2022/09/06 04:19:24;;;;;;;6.28;5.30;;;;;;;11.92;88.78;97110.65;1734209;81;20963;-87
2022/09/06 04:21:49;;;;;;;6.85;5.55;;;;;;;11.92;88.82;97115.86;1755863;81;20947;-87
2022/09/06 04:24:16;;;;;;;7.25;5.15;;;;;;;11.95;89.00;97114.70;1755325;81;20948;-87
2022/09/06 04:26:42;;;;;;;5.65;5.15;;;;;;;11.96;89.12;97121.03;1742928;81;21028;-87
2022/09/06 04:29:08;;;;;;;6.35;5.62;;;;;;;11.97;89.25;97123.95;1749860;81;21404;-88
2022/09/06 04:31:33;;;;;;;6.55;5.28;;;;;;;11.99;89.52;97127.20;1764424;81;20984;-88
2022/09/06 04:33:59;;;;;;;5.65;5.08;;;;;;;12.03;89.45;97131.56;1740804;82;20960;-88
2022/09/06 04:36:25;;;;;;;11.95;5.42;;;;;;;12.06;89.43;97134.34;1733205;82;20972;-88
2022/09/06 04:38:51;;;;;;;6.10;5.17;;;;;;;12.06;89.42;97133.84;1760959;81;20987;-87
2022/09/06 04:41:17;;;;;;;6.60;5.45;;;;;;;12.05;89.42;97129.63;1762214;81;20987;-88
2022/09/06 04:43:44;;;;;;;6.25;5.65;;;;;;;12.06;89.53;97126.03;1742989;81;21557;-88
2022/09/06 04:46:20;;;;;;;7.87;5.75;;;;;;;12.09;89.51;97131.38;1758923;81;21059;-87
2022/09/06 04:48:48;;;;;;;7.12;5.30;;;;;;;12.10;89.53;97134.30;1709013;82;21075;-88
2022/09/06 04:51:13;;;;;;;6.15;5.30;;;;;;;12.11;89.62;97138.53;1749614;81;20998;-88
2022/09/06 04:53:39;;;;;;;6.95;5.78;;;;;;;12.11;89.82;97139.83;1766658;81;21015;-87
2022/09/06 04:56:05;;;;;;;7.17;6.17;;;;;;;12.14;89.85;97131.66;1749785;81;21451;-87
2022/09/06 04:58:31;;;;;;;6.53;5.92;;;;;;;12.13;89.89;97136.06;1742168;81;21280;-87
2022/09/06 05:00:57;;;;;;;7.10;5.62;;;;;;;12.14;89.81;97135.08;1743050;81;21015;-88
2022/09/06 05:03:22;;;;;;;6.60;5.95;;;;;;;12.14;89.81;97136.39;1747443;81;21113;-88
2022/09/06 05:05:48;;;;;;;6.20;5.60;;;;;;;12.16;89.84;97138.32;1700595;84;21007;-87
2022/09/06 05:08:14;;;;;;;6.00;5.35;;;;;;;12.17;89.94;97134.73;1742480;81;21007;-87
2022/09/06 05:10:40;;;;;;;7.35;5.33;;;;;;;12.21;90.08;97133.42;1746793;81;20924;-87
2022/09/06 05:13:05;;;;;;;6.72;5.78;;;;;;;12.26;90.29;97137.61;1747445;81;21008;-87
2022/09/06 05:15:32;;;;;;;6.28;5.42;;;;;;;12.33;90.35;97140.32;1759941;81;21007;-87
2022/09/06 05:18:03;;;;;;;6.47;5.70;;;;;;;12.38;90.56;97137.22;1702587;84;20979;-87
2022/09/06 05:20:30;;;;;;;5.17;4.67;;;;;;;12.42;90.60;97141.90;1762136;80;20972;-87
2022/09/06 05:22:55;;;;;;;7.22;5.30;;;;;;;12.48;90.83;97141.69;1769757;80;21319;-88
2022/09/06 05:25:21;;;;;;;6.37;5.40;;;;;;;12.55;90.90;97134.80;1743226;81;20960;-87
2022/09/06 05:27:48;;;;;;;6.55;5.30;;;;;;;12.60;90.94;97137.68;1750312;82;20997;-87
2022/09/06 05:30:16;;;;;;;6.00;5.40;;;;;;;12.65;91.06;97134.05;1736247;81;20955;-88
2022/09/06 05:32:42;;;;;;;5.70;5.20;;;;;;;12.72;91.20;97131.56;1755505;81;21026;-88
2022/09/06 05:35:08;;;;;;;5.58;5.08;;;;;;;12.76;91.22;97134.13;1746109;81;21366;-88
2022/09/06 05:37:33;;;;;;;7.58;5.67;;;;;;;12.82;91.28;97136.02;1753726;82;20964;-88
2022/09/06 05:40:00;;;;;;;7.20;5.40;;;;;;;12.89;91.41;97139.55;1690774;84;20967;-88
2022/09/06 05:42:26;;;;;;;7.15;6.28;;;;;;;12.95;91.41;97141.44;1749252;81;20981;-88
2022/09/06 05:44:52;;;;;;;7.53;5.65;;;;;;;12.98;91.32;97138.47;1729671;82;20983;-88
2022/09/06 05:47:17;;;;;;;5.87;5.22;;;;;;;12.97;90.85;97138.16;1749163;81;21018;-88
2022/09/06 05:49:44;;;;;;;6.65;5.80;;;;;;;12.98;91.13;97135.86;1740157;80;20996;-88
2022/09/06 05:52:10;;;;;;;7.22;5.85;;;;;;;13.01;91.42;97127.67;1768911;80;21054;-88
2022/09/06 05:54:36;;;;;;;6.30;5.60;;;;;;;13.04;91.38;97128.64;1756398;81;20948;-88
2022/09/06 05:57:02;;;;;;;6.20;5.60;;;;;;;13.07;91.76;97132.20;1743256;81;20982;-88
2022/09/06 05:59:27;;;;;;;6.72;6.10;;;;;;;13.13;91.94;97137.99;1760701;81;20982;-88
2022/09/06 06:01:53;;;;;;;9.73;7.33;;;;;;;13.17;91.70;97139.25;1755741;81;20952;-88
2022/09/06 06:04:21;;;;;;;9.25;7.83;;;;;;;13.21;91.45;97134.53;1753150;81;20983;-88
2022/09/06 06:06:48;;;;;;;8.45;7.55;;;;;;;13.26;90.98;97145.23;1750470;81;20994;-88
2022/09/06 06:09:14;;;;;;;9.68;7.53;;;;;;;13.31;90.87;97146.80;1744276;81;20928;-88
2022/09/06 06:11:40;;;;;;;9.78;8.80;;;;;;;13.35;90.64;97153.80;1732771;82;20983;-88
2022/09/06 06:14:06;;;;;;;9.78;7.87;;;;;;;13.36;89.55;97151.01;1757567;81;21378;-88
2022/09/06 06:16:32;;;;;;;8.05;6.80;;;;;;;13.39;89.41;97151.14;1742159;81;21037;-88
2022/09/06 06:18:58;;;;;;;8.50;6.92;;;;;;;13.41;89.58;97152.58;1737485;82;21047;-88
2022/09/06 06:21:27;;;;;;;9.65;7.25;;;;;;;13.37;89.69;97151.81;1707066;83;20952;-88
2022/09/06 06:24:03;;;;;;;8.98;6.65;;;;;;;13.36;89.92;97142.37;1711375;84;21030;-88
2022/09/06 06:26:32;;;;;;;10.05;7.55;;;;;;;13.42;90.10;97140.33;1685872;84;21011;-88
2022/09/06 06:29:00;;;;;;;8.60;7.42;;;;;;;13.45;90.10;97131.63;1685959;84;21007;-88
2022/09/06 06:31:29;;;;;;;10.05;8.68;;;;;;;13.49;90.14;97139.41;1710060;84;20988;-87
2022/09/06 06:33:55;;;;;;;9.28;7.80;;;;;;;13.54;89.84;97132.86;1708034;83;21359;-88
2022/09/06 06:36:23;;;;;;;10.15;7.75;;;;;;;13.56;89.89;97133.48;1699602;84;21044;-88
2022/09/06 06:38:52;;;;;;;9.80;8.53;;;;;;;13.59;90.43;97130.00;1703174;84;21015;-88
2022/09/06 06:41:20;;;;;;;10.40;9.23;;;;;;;13.65;90.26;97134.98;1709858;84;20936;-88
2022/09/06 06:43:46;;;;;;;10.80;9.03;;;;;;;13.67;90.09;97128.61;1711870;84;21392;-88
2022/09/06 06:46:14;;;;;;;10.85;8.18;;;;;;;13.68;90.52;97136.76;1704284;84;20992;-87
2022/09/06 06:48:40;;;;;;;8.90;7.78;;;;;;;13.74;90.86;97126.06;1706040;83;21087;-88
2022/09/06 06:51:07;;;;;;;7.70;6.90;;;;;;;13.78;90.97;97124.20;1701610;84;20971;-89
2022/09/06 06:53:34;;;;;;;9.03;7.00;;;;;;;13.85;91.41;97130.02;1702044;84;20957;-88
2022/09/06 06:56:00;;;;;;;10.25;8.80;;;;;;;13.92;91.18;97126.97;1714766;84;20988;-88
2022/09/06 06:58:26;;;;;;;10.80;8.03;;;;;;;13.98;90.60;97136.17;1699575;83;21010;-86
2022/09/06 07:00:52;;;;;;;9.48;6.97;;;;;;;14.02;90.71;97137.95;1664666;84;20936;-85
2022/09/06 07:03:17;;;;;;;9.03;7.60;;;;;;;14.13;91.03;97141.36;1700177;84;21057;-86
2022/09/06 07:05:45;;;;;;;10.03;8.08;;;;;;;14.30;90.71;97147.16;1691398;84;20988;-86
2022/09/06 07:08:11;;;;;;;10.32;8.23;;;;;;;14.44;90.47;97139.79;1707437;84;20992;-86
2022/09/06 07:10:37;;;;;;;10.40;8.63;;;;;;;14.53;88.97;97138.67;1705280;84;21057;-85
2022/09/06 07:13:02;;;;;;;12.63;9.85;;;;;;;14.61;88.71;97138.53;1707732;83;21019;-86
2022/09/06 07:15:28;;;;;;;12.85;9.93;;;;;;;14.67;87.95;97140.41;1690493;83;21319;-85
2022/09/06 07:17:55;;;;;;;15.48;9.85;;;;;;;14.75;88.92;97139.45;1706210;83;20953;-84
2022/09/06 07:20:22;;;;;;;11.38;9.38;;;;;;;14.80;87.63;97144.92;1726396;81;21076;-86
2022/09/06 07:23:04;;;;;;;11.57;9.30;;;;;;;14.89;87.62;97142.48;1686075;84;21057;-85
2022/09/06 07:25:32;;;;;;;11.08;8.75;;;;;;;14.99;87.81;97136.43;1726408;82;21422;-86
2022/09/06 07:28:05;;;;;;;9.75;8.05;;;;;;;15.14;88.97;97136.84;1740191;82;21386;-86
2022/09/06 07:30:30;;;;;;;10.18;8.55;;;;;;;15.23;89.01;97135.66;1712799;82;20981;-86
2022/09/06 07:32:58;;;;;;;9.55;8.13;;;;;;;15.29;88.23;97141.43;1727556;82;21379;-86
2022/09/06 07:35:25;;;;;;;10.78;8.25;;;;;;;15.31;86.47;97142.07;1726279;82;21292;-86
2022/09/06 07:37:56;;;;;;;13.83;8.80;;;;;;;15.35;87.59;97146.42;1690905;83;21355;-86
2022/09/06 07:40:28;;;;;;;10.70;7.50;;;;;;;15.42;86.75;97157.72;1722993;83;21020;-86
2022/09/06 07:42:58;;;;;;;8.35;7.10;;;;;;;15.46;86.29;97160.28;1745423;82;20951;-86
2022/09/06 07:45:25;;;;;;;9.28;7.25;;;;;;;15.48;85.25;97168.76;1686043;84;21038;-86
2022/09/06 07:47:55;;;;;;;7.65;6.83;;;;;;;15.49;83.67;97165.94;1726103;82;21020;-86
2022/09/06 07:50:23;;;;;;;8.38;7.40;;;;;;;15.47;83.80;97159.28;1756310;81;21027;-86
2022/09/06 07:52:49;;;;;;;9.58;7.47;;;;;;;15.51;84.83;97160.51;1741222;81;21005;-86
2022/09/06 07:55:15;;;;;;;8.58;7.20;;;;;;;15.57;84.98;97164.46;1729879;81;20963;-86
2022/09/06 07:57:41;;;;;;;8.63;7.37;;;;;;;15.61;84.29;97164.91;1754119;82;20955;-85
2022/09/06 08:00:09;;;;;;;8.58;6.85;;;;;;;15.68;84.37;97163.14;1670613;84;20966;-85
2022/09/06 08:02:35;;;;;;;9.83;7.30;;;;;;;15.76;85.13;97158.22;1672067;85;21316;-86
2022/09/06 08:05:01;;;;;;;8.33;6.72;;;;;;;15.80;82.94;97158.97;1726791;82;20952;-86
2022/09/06 08:07:27;;;;;;;6.65;6.00;;;;;;;15.85;84.53;97158.37;1708955;82;20976;-86
2022/09/06 08:09:53;;;;;;;10.68;7.85;;;;;;;15.89;83.54;97163.52;1739757;81;21019;-85
2022/09/06 08:12:18;;;;;;;7.58;6.22;;;;;;;15.90;83.62;97164.64;1721003;82;20969;-86
2022/09/06 08:14:44;;;;;;;8.73;6.83;;;;;;;15.93;83.88;97156.88;1743530;82;20990;-86
2022/09/06 08:17:10;;;;;;;8.63;6.53;;;;;;;15.95;83.99;97154.09;1721375;82;21004;-85
2022/09/06 08:19:36;;;;;;;8.63;6.20;;;;;;;15.99;84.33;97155.30;1729127;81;21137;-86
2022/09/06 08:22:02;;;;;;;9.15;6.30;;;;;;;16.03;83.88;97159.95;1753609;81;20948;-85
2022/09/06 08:24:27;;;;;;;8.70;6.47;;;;;;;16.02;83.50;97166.20;1688680;83;20987;-86
2022/09/06 08:26:53;;;;;;;8.73;6.10;;;;;;;16.03;83.88;97160.45;1741277;81;21024;-86
2022/09/06 08:29:19;;;;;;;9.90;6.47;;;;;;;16.04;83.60;97163.38;1725727;81;21416;-86
2022/09/06 08:31:45;;;;;;;8.63;6.05;;;;;;;16.06;84.30;97158.23;1709538;82;21787;-86
2022/09/06 08:34:11;;;;;;;6.87;5.97;;;;;;;16.08;83.50;97166.71;1736527;81;20953;-85
2022/09/06 08:36:37;;;;;;;7.45;5.35;;;;;;;16.04;82.41;97160.25;1744027;82;21030;-86
2022/09/06 08:39:05;;;;;;;8.93;5.80;;;;;;;16.00;82.01;97162.16;1740947;82;21007;-86
2022/09/06 08:41:59;;;;;;;8.53;5.30;;;;;;;15.97;82.93;97160.75;1689551;83;21043;-86
2022/09/06 08:44:41;;;;;;;7.22;5.90;;;;;;;15.94;82.80;97153.25;1725637;82;21023;-86
2022/09/06 08:47:11;;;;;;;7.75;5.12;;;;;;;15.93;82.23;97152.95;1731990;81;21111;-85
2022/09/06 08:49:47;;;;;;;6.33;5.03;;;;;;;15.92;82.35;97155.27;1738217;81;21003;-85
2022/09/06 08:52:25;;;;;;;7.67;5.05;;;;;;;16.03;82.62;97156.02;1731575;81;20988;-86
2022/09/06 08:55:24;;;;;;;7.67;5.40;;;;;;;16.15;82.10;97162.31;1725488;82;21434;-87
2022/09/06 08:58:21;;;;;;;6.60;4.60;;;;;;;16.23;81.13;97160.00;1725709;82;21007;-88
2022/09/06 09:00:51;;;;;;;7.97;4.80;;;;;;;16.33;81.42;97159.13;1725345;82;20987;-87
2022/09/06 09:03:27;;;;;;;8.30;5.03;;;;;;;16.47;80.38;97159.45;1728543;81;21018;-85
2022/09/06 09:05:53;;;;;;;7.20;4.40;;;;;;;16.57;79.42;97152.48;1737141;81;21343;-83
2022/09/06 09:08:43;;;;;;;7.15;4.95;;;;;;;16.60;80.03;97152.11;1718401;82;20921;-84
2022/09/06 09:11:17;;;;;;;7.10;5.00;;;;;;;16.59;78.74;97153.09;1732946;82;21386;-84
2022/09/06 09:14:07;;;;;;;6.20;4.97;;;;;;;16.70;79.34;97151.22;1715442;82;20933;-84
2022/09/06 09:16:32;;;;;;;8.03;5.00;;;;;;;16.82;78.47;97154.06;1731037;82;21098;-85
2022/09/06 09:19:03;;;;;;;6.03;4.80;;;;;;;16.91;78.02;97145.46;1740838;82;21028;-85
2022/09/06 09:21:35;;;;;;;6.80;5.35;;;;;;;16.96;78.10;97137.80;1751332;81;20992;-84
2022/09/06 09:24:04;;;;;;;;;;;;;;;17.02;78.53;97139.10;1724019;82;21037;-83
2022/09/06 09:26:52;;;;;;;8.18;5.00;;;;;;;17.06;78.52;97127.68;1733754;81;20315;-83
2022/09/06 09:29:18;;;;;;;8.83;4.92;;;;;;;17.10;77.82;97127.59;1748424;81;20969;-82
2022/09/06 09:31:51;;;;;;;6.20;4.50;;;;;;;17.18;78.55;97109.48;1681855;84;21320;-83
2022/09/06 09:34:35;;;;;;;6.30;4.85;;;;;;;17.27;77.35;97107.77;1695611;85;20987;-82
2022/09/06 09:37:23;;;;;;;8.58;5.05;;;;;;;17.33;77.09;97096.42;1689507;85;21015;-83
2022/09/06 09:39:52;;;;;;;6.83;5.20;;;;;;;17.46;76.46;97090.83;1689669;85;21023;-83
2022/09/06 09:42:31;;;;;;;8.45;4.75;;;;;;;17.58;76.67;97094.44;1737107;82;21091;-83
2022/09/06 09:44:57;;;;;;;9.13;5.80;;;;;;;17.59;74.74;97088.16;1696624;82;21362;-84
2022/09/06 09:47:27;;;;;;;6.42;5.28;;;;;;;17.57;73.20;97090.16;1746562;81;21083;-85
2022/09/06 09:49:54;;;;;;;9.38;5.58;;;;;;;17.67;75.07;97082.66;1742329;82;20995;-85
2022/09/06 09:52:29;;;;;;;10.03;5.58;;;;;;;17.88;74.25;97077.11;1752972;81;20948;-87
2022/09/06 09:55:02;;;;;;;7.00;5.05;;;;;;;18.00;76.11;97075.43;1748372;82;20980;-87
2022/09/06 09:57:30;;;;;;;6.55;5.00;;;;;;;18.08;74.58;97075.70;1697657;84;21053;-86
2022/09/06 09:59:59;;;;;;;9.53;6.40;;;;;;;18.11;74.11;97071.84;1696690;83;21064;-86
2022/09/06 10:02:37;;;;;;;8.35;5.50;;;;;;;18.08;72.93;97065.69;1687421;84;21412;-86
2022/09/06 10:05:14;;;;;;;7.83;5.62;;;;;;;18.09;74.33;97068.62;1717226;83;20999;-86
2022/09/06 10:07:52;;;;;;;7.22;5.42;;;;;;;18.19;72.95;97062.36;1742601;81;21020;-87
2022/09/06 10:10:24;;;;;;;7.55;5.67;;;;;;;18.28;74.92;97062.41;1728683;82;21018;-85
2022/09/06 10:13:22;;;;;;;8.55;6.70;;;;;;;18.31;74.36;97060.66;1755095;81;21283;-86
2022/09/06 10:15:49;;;;;;;7.10;5.60;;;;;;;18.29;73.65;97064.02;1751506;81;21014;-86
2022/09/06 10:18:35;;;;;;;6.25;5.25;;;;;;;18.32;73.73;97068.84;1765255;81;21318;-88
2022/09/06 10:21:06;;;;;;;9.13;6.17;;;;;;;18.37;72.69;97068.20;1754960;81;20994;-89
2022/09/06 10:23:40;;;;;;;9.50;5.78;;;;;;;18.45;73.37;97064.00;1753082;81;20983;-89
2022/09/06 10:26:10;;;;;;;7.20;5.30;;;;;;;18.57;74.10;97064.41;1704799;81;21499;-90
2022/09/06 10:28:40;;;;;;;6.65;5.33;;;;;;;18.73;74.43;97063.61;1749562;81;21384;-90
2022/09/06 10:31:42;;;;;;;8.53;5.05;;;;;;;18.89;74.40;97055.95;1736303;81;21389;-90
2022/09/06 10:34:49;;;;;;;9.60;6.37;;;;;;;19.03;73.89;97053.16;1749084;81;21010;-89
2022/09/06 10:37:50;;;;;;;6.80;5.25;;;;;;;19.15;74.38;97050.91;1736767;81;20975;-90
2022/09/06 10:40:52;;;;;;;8.98;4.97;;;;;;;19.30;71.37;97055.81;1771694;81;21026;-91
2022/09/06 10:43:18;;;;;;;6.42;4.67;;;;;;;19.43;71.76;97054.34;1761989;81;21965;-90
2022/09/06 10:46:03;;;;;;;7.47;5.40;;;;;;;19.56;71.53;97045.51;1732778;81;20940;-87
2022/09/06 10:48:38;;;;;;;8.08;5.00;;;;;;;19.55;70.71;97049.17;1732782;81;21018;-87
2022/09/06 10:51:19;;;;;;;6.12;3.98;;;;;;;19.45;69.84;97047.02;1738419;81;21074;-88
2022/09/06 10:53:54;;;;;;;8.75;5.45;;;;;;;19.39;70.54;97049.23;1749597;81;20967;-88
2022/09/06 10:56:43;;;;;;;6.47;4.45;;;;;;;19.32;69.74;97049.00;1707708;84;20965;-88
2022/09/06 10:59:42;;;;;;;6.25;5.08;;;;;;;19.25;69.88;97049.60;1763759;81;21410;-88
2022/09/06 11:02:40;;;;;;;6.17;4.20;;;;;;;19.17;70.24;97034.37;1706019;84;20954;-87
2022/09/06 11:05:24;;;;;;;8.00;5.33;;;;;;;19.10;69.76;97055.23;1761260;81;21105;-88
2022/09/06 11:07:58;;;;;;;7.75;4.30;;;;;;;18.93;69.65;97052.88;1691910;84;21019;-87
2022/09/06 11:10:32;;;;;;;6.20;3.87;;;;;;;18.85;70.56;97060.53;1765428;81;20963;-88
2022/09/06 11:13:15;;;;;;;6.15;4.37;;;;;;;18.84;71.63;97058.41;1749143;81;20983;-88
2022/09/06 11:16:13;;;;;;;6.92;4.42;;;;;;;18.95;70.36;97044.25;1734775;81;20968;-88
2022/09/06 11:18:59;;;;;;;8.40;4.28;;;;;;;19.06;69.65;97045.66;1750842;81;20988;-88
2022/09/06 11:21:53;;;;;;;8.63;4.72;;;;;;;19.29;71.78;97046.81;1733080;81;21026;-88
2022/09/06 11:24:28;;;;;;;7.08;4.50;;;;;;;19.50;71.56;97045.03;1720007;82;21016;-88
2022/09/06 11:26:59;;;;;;;6.72;4.45;;;;;;;19.74;71.28;97048.63;1755948;81;20994;-88
2022/09/06 11:29:26;;;;;;;6.50;4.78;;;;;;;19.85;69.31;97043.92;1763202;81;22023;-88
2022/09/06 11:31:55;;;;;;;7.20;4.67;;;;;;;19.86;67.83;97046.04;1733033;81;20952;-88
2022/09/06 11:34:26;;;;;;;6.40;4.70;;;;;;;19.80;69.53;97038.49;1720329;82;21337;-88
2022/09/06 11:36:57;;;;;;;6.67;4.50;;;;;;;19.76;68.11;97034.19;1699584;83;21062;-88
2022/09/06 11:39:40;;;;;;;5.85;4.28;;;;;;;19.71;68.76;97031.42;1726616;82;20991;-88
2022/09/06 11:42:09;;;;;;;6.22;3.80;;;;;;;19.69;68.19;97025.58;1767357;81;21026;-88
2022/09/06 11:45:07;;;;;;;4.75;4.12;;;;;;;19.68;68.16;97025.77;1765674;81;20972;-88
2022/09/06 11:47:42;;;;;;;5.33;4.40;;;;;;;19.73;68.62;97023.28;1751446;81;21003;-88
2022/09/06 11:50:25;;;;;;;7.47;4.58;;;;;;;19.77;65.63;97019.97;1759157;81;20990;-89
2022/09/06 11:53:03;;;;;;;6.30;3.77;;;;;;;19.76;67.56;97023.64;1752345;81;21000;-88
2022/09/06 11:55:40;;;;;;;5.90;4.30;;;;;;;19.75;67.00;97024.66;1743228;82;21398;-88